createdAt,value
2019-03-30T13:29:00.448Z,38.57
2019-03-30T13:31:32.162Z,38.68
2019-03-30T13:34:03.693Z,37.91
2019-03-30T13:36:39.877Z,37.85
2019-03-30T13:39:11.409Z,38.17
2019-03-30T13:41:42.930Z,37.13
2019-03-30T13:44:14.606Z,38.19
2019-03-30T13:46:46.637Z,37.96
2019-03-30T13:49:18.221Z,37.88
2019-03-30T13:51:49.799Z,39.10
2019-03-30T13:54:21.326Z,37.96
2019-03-30T13:56:52.913Z,37.48
2019-03-30T13:59:24.449Z,37.12
2019-03-30T14:01:56.080Z,36.98
2019-03-30T14:04:27.679Z,37.94
2019-03-30T14:06:59.329Z,37.98
2019-03-30T14:09:30.947Z,36.49
2019-03-30T14:12:02.527Z,33.97
2019-03-30T14:14:34.124Z,35.70
2019-03-30T14:17:05.757Z,35.50
2019-03-30T14:19:37.634Z,35.24
2019-03-30T14:22:09.198Z,34.86
2019-03-30T14:24:40.914Z,34.28
2019-03-30T14:27:12.393Z,34.14
2019-03-30T14:29:44.120Z,34.41
2019-03-30T14:32:15.722Z,34.18
2019-03-30T14:34:47.716Z,33.29
2019-03-30T14:37:19.364Z,32.87
2019-03-30T14:39:50.970Z,33.32
2019-03-30T14:42:22.450Z,33.47
2019-03-30T14:44:54.138Z,31.48
2019-03-30T14:47:25.836Z,33.02
2019-03-30T14:49:57.323Z,32.22
2019-03-30T14:52:28.881Z,31.02
2019-03-30T14:55:00.448Z,30.89
2019-03-30T14:57:32.082Z,31.64
2019-03-30T15:00:04.174Z,31.11
2019-03-30T15:02:35.863Z,31.53
2019-03-30T15:05:08.230Z,30.51
2019-03-30T15:07:39.849Z,31.06
2019-03-30T15:10:11.309Z,31.66
2019-03-30T15:12:42.878Z,31.38
2019-03-30T15:15:14.556Z,31.88
2019-03-30T15:17:46.241Z,32.30
2019-03-30T15:20:17.964Z,32.73
2019-03-30T15:22:49.607Z,33.18
2019-03-30T15:25:21.220Z,33.97
2019-03-30T15:27:52.861Z,33.89
2019-03-30T15:30:24.379Z,34.01
2019-03-30T15:32:55.928Z,35.08
2019-03-30T15:35:27.583Z,35.44
2019-03-30T15:37:59.444Z,36.05
2019-03-30T15:40:30.922Z,36.83
2019-03-30T15:43:02.647Z,36.84
2019-03-30T15:45:34.186Z,36.54
2019-03-30T15:48:05.811Z,36.96
2019-03-30T15:50:37.386Z,37.48
2019-03-30T15:53:10.269Z,37.72
2019-03-30T15:55:41.853Z,37.96
2019-03-30T15:58:13.480Z,38.52
2019-03-30T16:00:44.930Z,38.89
2019-03-30T16:03:16.483Z,39.07
2019-03-30T16:05:47.926Z,39.32
2019-03-30T16:08:19.658Z,39.74
2019-03-30T16:10:52.380Z,40.39
2019-03-30T16:13:24.339Z,40.69
2019-03-30T16:15:55.802Z,40.44
2019-03-30T16:18:27.352Z,40.95
2019-03-30T16:20:58.801Z,41.56
2019-03-30T16:23:30.361Z,41.70
2019-03-30T16:26:01.890Z,42.20
2019-03-30T16:28:33.618Z,42.99
2019-03-30T16:31:05.051Z,43.43
2019-03-30T16:33:36.609Z,44.32
2019-03-30T16:36:08.148Z,45.29
2019-03-30T16:38:39.826Z,45.57
2019-03-30T16:41:11.484Z,46.41
2019-03-30T16:43:43.318Z,46.94
2019-03-30T16:46:14.841Z,48.25
2019-03-30T16:48:46.469Z,47.70
2019-03-30T16:51:18.129Z,48.17
2019-03-30T16:53:49.839Z,49.50
2019-03-30T16:56:21.359Z,50.62
2019-03-30T16:58:52.920Z,51.07
2019-03-30T17:01:24.569Z,51.96
2019-03-30T17:03:56.121Z,52.58
2019-03-30T17:06:27.631Z,52.83
2019-03-30T17:08:59.352Z,53.66
2019-03-30T17:11:31.862Z,54.34
2019-03-30T17:14:03.573Z,53.16
2019-03-30T17:16:35.162Z,52.83
2019-03-30T17:19:07.774Z,53.59
2019-03-30T17:21:39.285Z,54.35
2019-03-30T17:24:10.921Z,55.34
2019-03-30T17:26:43.575Z,56.01
2019-03-30T17:29:15.240Z,56.74
2019-03-30T17:31:47.004Z,57.50
2019-03-30T17:34:18.695Z,58.18
2019-03-30T17:36:50.262Z,58.39
2019-03-30T17:39:21.910Z,59.11
2019-03-30T17:41:53.477Z,59.85
2019-03-30T17:44:25.305Z,60.38
2019-03-30T17:46:56.845Z,60.47
2019-03-30T17:49:28.401Z,60.98
2019-03-30T17:51:59.944Z,61.38
2019-03-30T17:54:31.415Z,61.34
2019-03-30T17:57:02.917Z,61.28
2019-03-30T17:59:34.699Z,61.84
2019-03-30T18:02:06.274Z,62.51
2019-03-30T18:04:39.029Z,62.60
2019-03-30T18:07:13.656Z,49.98
2019-03-30T18:09:45.254Z,47.73
2019-03-30T18:12:16.685Z,50.42
2019-03-30T18:14:48.213Z,51.85
2019-03-30T18:17:19.974Z,53.93
2019-03-30T18:19:51.640Z,55.39
2019-03-30T18:22:23.295Z,56.51
2019-03-30T18:24:54.855Z,57.56
2019-03-30T18:27:26.377Z,58.26
2019-03-30T18:29:58.002Z,59.53
2019-03-30T18:32:29.558Z,60.36
2019-03-30T18:35:04.348Z,61.22
2019-03-30T18:37:35.895Z,61.96
2019-03-30T18:40:09.032Z,62.33
2019-03-30T18:42:40.659Z,62.61
2019-03-30T18:45:17.176Z,49.10
2019-03-30T18:47:48.712Z,49.08
2019-03-30T18:50:20.314Z,51.58
2019-03-30T18:52:51.959Z,53.69
2019-03-30T18:55:26.795Z,55.42
2019-03-30T18:57:58.397Z,56.75
2019-03-30T19:00:29.963Z,58.08
2019-03-30T19:03:01.662Z,59.17
2019-03-30T19:05:33.226Z,60.01
2019-03-30T19:08:04.831Z,61.07
2019-03-30T19:10:36.624Z,62.08
2019-03-30T19:13:08.304Z,62.81
2019-03-30T19:15:39.924Z,60.85
2019-03-30T19:18:11.528Z,50.46
2019-03-30T19:20:45.033Z,51.90
2019-03-30T19:23:16.704Z,54.01
2019-03-30T19:25:48.476Z,56.18
2019-03-30T19:28:20.036Z,57.80
2019-03-30T19:30:51.523Z,59.24
2019-03-30T19:33:23.282Z,60.05
2019-03-30T19:35:54.897Z,61.07
2019-03-30T19:38:26.664Z,61.95
2019-03-30T19:40:59.384Z,63.01
2019-03-30T19:43:30.918Z,60.69
2019-03-30T19:46:02.613Z,51.17
2019-03-30T19:48:36.916Z,51.89
2019-03-30T19:51:07.598Z,54.39
2019-03-30T19:53:39.372Z,56.01
2019-03-30T19:56:10.966Z,57.48
2019-03-30T19:58:42.663Z,58.95
2019-03-30T20:01:15.318Z,59.35
2019-03-30T20:03:46.956Z,61.04
2019-03-30T20:06:18.500Z,61.86
2019-03-30T20:08:50.099Z,61.81
2019-03-30T20:11:21.649Z,49.09
2019-03-30T20:13:53.631Z,49.67
2019-03-30T20:16:25.263Z,52.27
2019-03-30T20:19:11.484Z,54.54
2019-03-30T20:21:30.189Z,56.35
2019-03-30T20:24:01.715Z,57.90
2019-03-30T20:26:33.346Z,59.29
2019-03-30T20:29:05.180Z,60.29
2019-03-30T20:31:37.913Z,61.54
2019-03-30T20:34:09.577Z,62.57
2019-03-30T20:36:41.316Z,61.66
2019-03-30T20:39:12.922Z,48.93
2019-03-30T20:41:44.678Z,48.89
2019-03-30T20:44:16.283Z,51.42
2019-03-30T20:46:47.969Z,53.57
2019-03-30T20:49:19.656Z,55.40
2019-03-30T20:51:51.298Z,57.17
2019-03-30T20:54:22.893Z,58.74
2019-03-30T20:56:55.397Z,59.85
2019-03-30T20:59:39.418Z,60.94
2019-03-30T21:02:00.176Z,62.04
2019-03-30T21:04:31.703Z,63.13
2019-03-30T21:07:03.261Z,49.02
2019-03-30T21:09:34.790Z,47.79
2019-03-30T21:12:06.323Z,50.91
2019-03-30T21:14:37.770Z,53.33
2019-03-30T21:17:09.319Z,55.06
2019-03-30T21:19:40.779Z,56.63
2019-03-30T21:22:12.404Z,57.98
2019-03-30T21:24:43.994Z,59.16
2019-03-30T21:27:15.571Z,60.40
2019-03-30T21:29:54.609Z,61.40
2019-03-30T21:32:20.552Z,62.49
2019-03-30T21:34:52.144Z,61.66
2019-03-30T21:37:23.693Z,48.62
2019-03-30T21:39:55.297Z,49.64
2019-03-30T21:42:26.924Z,52.27
2019-03-30T21:44:58.447Z,54.76
2019-03-30T21:47:30.027Z,56.58
2019-03-30T21:50:01.587Z,58.02
2019-03-30T21:52:33.237Z,59.19
2019-03-30T21:55:05.500Z,60.48
2019-03-30T21:57:37.051Z,61.59
2019-03-30T22:00:10.962Z,62.56
2019-03-30T22:02:42.695Z,60.34
2019-03-30T22:05:14.319Z,50.12
2019-03-30T22:07:45.841Z,51.67
2019-03-30T22:10:22.232Z,53.96
2019-03-30T22:12:54.217Z,56.15
2019-03-30T22:15:29.892Z,58.02
2019-03-30T22:18:01.512Z,59.62
2019-03-30T22:20:33.175Z,60.78
2019-03-30T22:23:04.812Z,61.87
2019-03-30T22:25:36.829Z,62.99
2019-03-30T22:28:08.369Z,60.90
2019-03-30T22:30:39.950Z,48.76
2019-03-30T22:33:11.518Z,49.96
2019-03-30T22:35:43.040Z,53.10
2019-03-30T22:38:14.679Z,55.61
2019-03-30T22:40:46.186Z,57.17
2019-03-30T22:43:17.742Z,58.38
2019-03-30T22:45:49.267Z,59.65
2019-03-30T22:48:21.048Z,60.91
2019-03-30T22:50:52.482Z,62.15
2019-03-30T22:53:24.190Z,61.79
2019-03-30T22:55:55.704Z,48.67
2019-03-30T22:58:27.262Z,49.43
2019-03-30T23:01:03.359Z,52.21
2019-03-30T23:03:47.152Z,54.68
2019-03-30T23:06:20.904Z,56.81
2019-03-30T23:08:53.853Z,58.35
2019-03-30T23:11:25.484Z,59.70
2019-03-30T23:13:57.074Z,61.17
2019-03-30T23:16:28.764Z,62.01
2019-03-30T23:19:00.331Z,63.34
2019-03-30T23:21:31.924Z,62.48
2019-03-30T23:24:03.624Z,47.44
2019-03-30T23:26:35.129Z,48.63
2019-03-30T23:29:06.688Z,51.41
2019-03-30T23:31:38.212Z,53.70
2019-03-30T23:34:09.745Z,55.81
2019-03-30T23:36:41.252Z,57.44
2019-03-30T23:39:12.790Z,59.05
2019-03-30T23:41:44.377Z,60.61
2019-03-30T23:44:16.019Z,61.49
2019-03-30T23:46:47.690Z,62.46
2019-03-30T23:49:19.319Z,62.55
2019-03-30T23:51:50.854Z,48.06
2019-03-30T23:54:22.387Z,49.15
2019-03-30T23:56:53.983Z,52.11
2019-03-30T23:59:25.538Z,54.51
